createdAt,value
2024-01-16T00:02:42.539Z,24.13
2024-01-16T00:05:44.803Z,26.77
2024-01-16T00:08:47.151Z,31.20
2024-01-16T00:11:49.363Z,30.83
2024-01-16T00:14:51.509Z,29.30
2024-01-16T00:17:54.746Z,29.45
2024-01-16T00:20:57.035Z,32.58
2024-01-16T00:23:59.375Z,30.30
2024-01-16T00:27:01.473Z,32.67
2024-01-16T00:30:04.056Z,25.33
2024-01-16T00:33:07.400Z,30.17
2024-01-16T00:36:10.177Z,27.77
2024-01-16T00:39:12.438Z,28.90
2024-01-16T00:42:14.767Z,27.15
2024-01-16T00:45:18.494Z,23.00
2024-01-16T00:48:22.089Z,27.40
2024-01-16T00:51:24.533Z,27.40
2024-01-16T00:54:26.666Z,26.92
2024-01-16T00:57:28.833Z,24.90
2024-01-16T01:00:32.400Z,23.60
2024-01-16T01:03:34.689Z,24.10
2024-01-16T01:06:37.416Z,27.90
2024-01-16T01:09:39.707Z,23.40
2024-01-16T01:12:41.980Z,24.73
2024-01-16T01:15:44.385Z,24.88
2024-01-16T01:18:47.098Z,27.42
2024-01-16T01:21:50.687Z,25.45
2024-01-16T01:24:52.765Z,24.70
2024-01-16T01:27:54.831Z,25.77
2024-01-16T01:30:57.028Z,27.38
2024-01-16T01:33:59.523Z,31.70
2024-01-16T01:37:01.753Z,34.72
2024-01-16T01:40:04.503Z,35.75
2024-01-16T01:43:24.422Z,40.95
2024-01-16T01:46:27.040Z,39.20
2024-01-16T01:49:29.429Z,43.88
2024-01-16T01:52:33.349Z,45.83
2024-01-16T01:55:35.999Z,44.72
2024-01-16T01:58:42.162Z,44.42
2024-01-16T02:01:44.592Z,47.85
2024-01-16T02:04:48.206Z,54.75
2024-01-16T02:07:50.374Z,51.95
2024-01-16T02:10:52.765Z,52.15
2024-01-16T02:13:54.811Z,51.45
2024-01-16T02:16:56.935Z,50.95
2024-01-16T02:19:59.227Z,50.20
2024-01-16T02:23:04.716Z,49.92
2024-01-16T02:26:07.127Z,52.50
2024-01-16T02:29:10.165Z,50.38
2024-01-16T02:32:14.585Z,53.72
2024-01-16T02:35:18.410Z,50.88
2024-01-16T02:38:20.764Z,52.10
2024-01-16T02:41:23.279Z,51.22
2024-01-16T02:44:25.660Z,58.58
2024-01-16T02:47:28.125Z,51.95
2024-01-16T02:50:30.505Z,51.63
2024-01-16T02:53:33.332Z,49.67
2024-01-16T02:56:35.478Z,45.42
2024-01-16T02:59:38.008Z,52.08
2024-01-16T03:02:40.715Z,48.33
2024-01-16T03:05:43.291Z,45.95
2024-01-16T03:08:45.382Z,45.65
2024-01-16T03:11:48.037Z,46.17
2024-01-16T03:14:50.845Z,44.67
2024-01-16T03:17:53.346Z,50.05
2024-01-16T03:20:55.920Z,52.20
2024-01-16T03:23:58.249Z,45.55
2024-01-16T03:27:00.298Z,41.38
2024-01-16T03:30:04.306Z,42.53
2024-01-16T03:33:07.199Z,52.10
2024-01-16T03:36:14.464Z,46.95
2024-01-16T03:39:17.058Z,48.13
2024-01-16T03:42:19.566Z,46.25
2024-01-16T03:45:21.928Z,48.92
2024-01-16T03:48:24.452Z,45.15
2024-01-16T03:51:26.865Z,56.17
2024-01-16T03:54:29.213Z,51.28
2024-01-16T03:57:31.511Z,54.45
2024-01-16T04:00:33.860Z,51.72
2024-01-16T04:03:36.473Z,53.70
2024-01-16T04:06:38.797Z,51.53
2024-01-16T04:09:41.068Z,53.08
2024-01-16T04:12:43.458Z,47.85
2024-01-16T04:15:46.033Z,47.90
2024-01-16T04:18:48.842Z,50.20
2024-01-16T04:21:51.164Z,60.80
2024-01-16T04:24:53.950Z,56.33
2024-01-16T04:27:56.404Z,53.50
2024-01-16T04:30:58.778Z,53.00
2024-01-16T04:34:01.002Z,49.33
2024-01-16T04:37:04.551Z,48.83
2024-01-16T04:40:07.131Z,48.13
2024-01-16T04:43:09.530Z,54.63
2024-01-16T04:46:11.695Z,49.30
2024-01-16T04:49:14.114Z,46.45
2024-01-16T04:52:16.921Z,43.97
2024-01-16T04:55:18.962Z,53.28
2024-01-16T04:58:21.254Z,46.42
2024-01-16T05:01:23.561Z,45.65
2024-01-16T05:04:25.832Z,38.45
2024-01-16T05:07:28.189Z,31.83
2024-01-16T05:10:31.766Z,40.70
2024-01-16T05:13:34.397Z,47.72
2024-01-16T05:16:36.697Z,49.10
2024-01-16T05:19:38.784Z,42.60
2024-01-16T05:22:41.145Z,45.78
2024-01-16T05:25:43.438Z,44.15
2024-01-16T05:28:45.517Z,43.72
2024-01-16T05:31:47.883Z,50.22
2024-01-16T05:34:50.235Z,43.50
2024-01-16T05:37:52.510Z,41.53
2024-01-16T05:40:54.804Z,42.45
2024-01-16T05:43:57.063Z,39.20
2024-01-16T05:46:59.341Z,35.28
2024-01-16T05:50:01.578Z,37.35
2024-01-16T05:53:04.218Z,35.30
2024-01-16T05:56:06.952Z,33.03
2024-01-16T05:59:09.410Z,35.28
2024-01-16T06:02:12.260Z,35.55
2024-01-16T06:05:14.750Z,40.35
2024-01-16T06:08:17.151Z,34.20
2024-01-16T06:11:21.002Z,32.20
2024-01-16T06:14:23.441Z,31.92
2024-01-16T06:17:25.788Z,32.25
2024-01-16T06:20:29.899Z,30.95
2024-01-16T06:23:32.376Z,33.85
2024-01-16T06:26:34.818Z,30.58
2024-01-16T06:29:37.293Z,30.52
2024-01-16T06:32:39.516Z,33.03
2024-01-16T06:35:41.747Z,30.70
2024-01-16T06:38:44.186Z,30.45
2024-01-16T06:41:46.342Z,32.85
2024-01-16T06:44:48.940Z,28.90
2024-01-16T06:47:52.037Z,33.00
2024-01-16T06:50:54.535Z,29.48
2024-01-16T06:53:57.236Z,30.23
2024-01-16T06:56:59.555Z,28.77
2024-01-16T07:00:01.834Z,29.00
2024-01-16T07:03:04.627Z,29.77
2024-01-16T07:06:06.922Z,24.50
2024-01-16T07:09:11.717Z,25.25
2024-01-16T07:12:14.618Z,24.83
2024-01-16T07:15:17.019Z,25.50
2024-01-16T07:18:19.743Z,25.58
2024-01-16T07:21:22.740Z,29.02
2024-01-16T07:24:25.727Z,33.50
2024-01-16T07:27:28.182Z,39.75
2024-01-16T07:30:30.366Z,41.85
2024-01-16T07:33:33.546Z,31.83
2024-01-16T07:36:35.882Z,34.08
2024-01-16T07:39:38.192Z,41.67
2024-01-16T07:42:40.509Z,69.60
2024-01-16T07:45:42.880Z,25.83
2024-01-16T07:48:45.302Z,28.77
2024-01-16T07:51:47.767Z,28.15
2024-01-16T07:54:50.175Z,26.70
2024-01-16T07:57:52.916Z,26.08
2024-01-16T08:00:55.338Z,28.00
2024-01-16T08:03:57.799Z,23.05
2024-01-16T08:06:59.942Z,25.13
2024-01-16T08:10:02.777Z,26.65
2024-01-16T08:13:05.297Z,26.42
2024-01-16T08:16:10.802Z,25.70
2024-01-16T08:19:15.797Z,33.83
2024-01-16T08:22:18.217Z,26.27
2024-01-16T08:25:20.626Z,24.40
2024-01-16T08:28:25.332Z,24.85
2024-01-16T08:31:28.376Z,24.50
2024-01-16T08:34:30.642Z,24.40
2024-01-16T08:37:35.705Z,25.60
2024-01-16T08:40:37.752Z,23.80
2024-01-16T08:43:40.106Z,34.83
2024-01-16T08:46:42.188Z,20.50
2024-01-16T08:49:45.011Z,23.35
2024-01-16T08:52:47.140Z,26.40
2024-01-16T08:55:49.186Z,23.98
2024-01-16T08:58:51.296Z,24.52
2024-01-16T09:01:53.393Z,31.65
2024-01-16T09:04:56.575Z,29.67
2024-01-16T09:07:59.531Z,26.45
2024-01-16T09:11:01.631Z,21.92
2024-01-16T09:14:04.913Z,24.10
2024-01-16T09:17:07.151Z,22.52
2024-01-16T09:20:09.920Z,24.63
2024-01-16T09:23:12.363Z,19.40
2024-01-16T09:26:14.940Z,19.15
2024-01-16T09:29:17.631Z,19.98
2024-01-16T09:32:20.294Z,22.38
2024-01-16T09:35:23.376Z,21.40
2024-01-16T09:38:25.772Z,22.35
2024-01-16T09:41:28.209Z,21.17
2024-01-16T09:44:30.714Z,22.88
2024-01-16T09:47:33.713Z,20.88
2024-01-16T09:50:36.670Z,20.55
2024-01-16T09:53:38.765Z,20.40
2024-01-16T09:56:45.254Z,21.38
2024-01-16T09:59:49.048Z,23.55
2024-01-16T10:02:51.739Z,22.88
2024-01-16T10:05:54.968Z,22.05
2024-01-16T10:08:57.492Z,27.67
2024-01-16T10:12:01.404Z,24.85
2024-01-16T10:15:06.700Z,25.13
2024-01-16T10:18:24.801Z,25.67
2024-01-16T10:21:30.369Z,26.65
2024-01-16T10:24:34.654Z,31.40
2024-01-16T10:27:37.768Z,23.30
2024-01-16T10:30:39.996Z,66.53
2024-01-16T10:33:42.588Z,38.35
2024-01-16T10:36:45.035Z,22.50
2024-01-16T10:39:51.774Z,36.97
2024-01-16T10:43:04.855Z,24.85
2024-01-16T10:46:22.022Z,24.30
2024-01-16T10:49:31.616Z,18.60
2024-01-16T10:52:40.582Z,18.08
2024-01-16T10:55:54.935Z,21.88
2024-01-16T10:59:12.497Z,19.50
2024-01-16T11:02:19.096Z,18.90
2024-01-16T11:05:24.490Z,62.80
2024-01-16T11:08:32.138Z,39.60
2024-01-16T11:11:35.914Z,18.98
2024-01-16T11:14:38.920Z,19.98
2024-01-16T11:17:45.066Z,19.17
2024-01-16T11:21:02.198Z,17.77
2024-01-16T11:24:08.965Z,22.10
2024-01-16T11:27:23.405Z,22.05
2024-01-16T11:30:32.957Z,18.13
2024-01-16T11:33:35.468Z,25.63
2024-01-16T11:36:57.218Z,21.83
2024-01-16T11:40:17.995Z,17.15
2024-01-16T11:43:35.975Z,25.13
2024-01-16T11:47:01.560Z,16.17
2024-01-16T11:50:14.040Z,14.23
2024-01-16T11:53:40.434Z,13.40
2024-01-16T11:57:07.606Z,15.60
2024-01-16T12:00:20.907Z,14.82
2024-01-16T12:03:31.971Z,15.10
2024-01-16T12:06:39.471Z,14.15
2024-01-16T12:09:42.086Z,15.48
2024-01-16T12:12:44.514Z,15.00
2024-01-16T12:15:47.396Z,20.95
2024-01-16T12:18:50.116Z,17.13
2024-01-16T12:21:52.679Z,19.95
2024-01-16T12:24:58.291Z,22.77
2024-01-16T12:28:07.192Z,18.48
2024-01-16T12:31:09.827Z,17.03
2024-01-16T12:34:13.103Z,13.73
2024-01-16T12:37:15.844Z,17.92
2024-01-16T12:40:18.299Z,19.67
2024-01-16T12:43:20.938Z,18.90
2024-01-16T12:46:23.326Z,17.92
2024-01-16T12:49:26.440Z,20.58
2024-01-16T12:52:31.057Z,18.73
2024-01-16T12:55:35.189Z,19.67
2024-01-16T12:58:38.020Z,19.25
2024-01-16T13:01:45.674Z,20.58
2024-01-16T13:04:48.711Z,51.97
2024-01-16T13:08:04.315Z,43.80
2024-01-16T13:11:08.427Z,34.80
2024-01-16T13:14:10.896Z,26.25
2024-01-16T13:17:13.223Z,62.45
2024-01-16T13:20:17.423Z,155.18
2024-01-16T13:23:20.367Z,78.88
2024-01-16T13:26:22.875Z,179.73
2024-01-16T13:29:25.458Z,23.23
2024-01-16T13:32:27.823Z,24.73
2024-01-16T13:35:30.286Z,17.33
2024-01-16T13:38:32.460Z,22.00
2024-01-16T13:41:34.880Z,21.20
2024-01-16T13:44:37.310Z,21.50
2024-01-16T13:47:42.035Z,31.13
2024-01-16T13:50:45.879Z,25.52
2024-01-16T13:53:48.293Z,32.72
2024-01-16T13:57:02.501Z,25.27
2024-01-16T14:00:14.733Z,32.83
2024-01-16T14:03:18.633Z,26.10
2024-01-16T14:06:42.206Z,27.95
2024-01-16T14:09:45.345Z,31.90
2024-01-16T14:12:52.718Z,31.30
2024-01-16T14:15:54.886Z,31.45
2024-01-16T14:18:57.371Z,24.90
2024-01-16T14:21:59.907Z,25.83
2024-01-16T14:25:02.195Z,27.25
2024-01-16T14:28:05.590Z,26.75
2024-01-16T14:31:07.755Z,24.85
2024-01-16T14:34:14.475Z,24.10
2024-01-16T14:37:18.102Z,29.60
2024-01-16T14:40:26.644Z,23.83
2024-01-16T14:43:28.923Z,22.83
2024-01-16T14:46:31.200Z,22.40
2024-01-16T14:49:34.032Z,24.83
2024-01-16T14:52:36.530Z,23.48
2024-01-16T14:55:39.069Z,24.55
2024-01-16T14:58:41.475Z,21.33
2024-01-16T15:01:45.610Z,23.27
2024-01-16T15:04:49.348Z,21.20
2024-01-16T15:07:54.714Z,23.30
2024-01-16T15:11:01.156Z,22.20
2024-01-16T15:14:03.654Z,23.85
2024-01-16T15:17:08.483Z,22.27
2024-01-16T15:20:11.658Z,21.63
2024-01-16T15:23:13.976Z,23.10
2024-01-16T15:26:21.678Z,23.33
2024-01-16T15:29:25.535Z,21.50
2024-01-16T15:32:27.964Z,24.42
2024-01-16T15:35:30.236Z,25.08
2024-01-16T15:38:33.255Z,25.08
2024-01-16T15:41:35.532Z,22.92
2024-01-16T15:44:37.929Z,24.33
2024-01-16T15:47:40.565Z,24.48
2024-01-16T15:50:43.098Z,83.57
2024-01-16T15:53:45.372Z,196.85
2024-01-16T15:56:50.001Z,172.40
2024-01-16T15:59:53.843Z,157.50
2024-01-16T16:02:56.219Z,104.07
2024-01-16T16:05:58.424Z,31.20
2024-01-16T16:09:01.978Z,32.97
2024-01-16T16:12:05.252Z,30.30
2024-01-16T16:15:07.893Z,29.13
2024-01-16T16:18:10.222Z,29.27
2024-01-16T16:21:12.908Z,29.33
2024-01-16T16:24:17.552Z,35.15
2024-01-16T16:27:27.995Z,32.78
2024-01-16T16:30:30.799Z,32.50
2024-01-16T16:33:33.025Z,35.60
2024-01-16T16:36:40.129Z,31.30
2024-01-16T16:39:43.690Z,30.38
2024-01-16T16:42:46.255Z,33.03
2024-01-16T16:45:50.457Z,29.02
2024-01-16T16:48:53.083Z,30.90
2024-01-16T16:51:55.284Z,34.55
2024-01-16T16:54:57.480Z,34.58
2024-01-16T16:57:59.680Z,35.17
2024-01-16T17:01:02.047Z,35.83
2024-01-16T17:04:05.031Z,36.47
2024-01-16T17:07:11.514Z,38.40
2024-01-16T17:10:15.441Z,37.88
2024-01-16T17:13:17.762Z,40.53
2024-01-16T17:16:24.154Z,38.20
2024-01-16T17:19:26.867Z,51.03
2024-01-16T17:22:29.397Z,50.13
2024-01-16T17:25:31.582Z,69.63
2024-01-16T17:28:33.995Z,58.03
2024-01-16T17:31:38.029Z,54.53
2024-01-16T17:34:41.163Z,51.85
2024-01-16T17:37:43.431Z,54.15
2024-01-16T17:40:46.510Z,47.20
2024-01-16T17:43:49.128Z,132.45
2024-01-16T17:46:52.177Z,48.38
2024-01-16T17:49:54.461Z,59.45
2024-01-16T17:52:58.387Z,94.32
2024-01-16T17:56:00.708Z,72.70
2024-01-16T17:59:02.959Z,57.45
2024-01-16T18:02:10.596Z,64.38
2024-01-16T18:05:17.478Z,82.65
2024-01-16T18:08:19.945Z,46.17
2024-01-16T18:11:22.279Z,66.55
2024-01-16T18:14:25.522Z,49.17
2024-01-16T18:17:29.081Z,81.43
2024-01-16T18:20:32.851Z,72.07
2024-01-16T18:23:36.583Z,85.45
2024-01-16T18:26:44.089Z,83.88
2024-01-16T18:29:46.501Z,110.00
2024-01-16T18:32:49.548Z,81.88
2024-01-16T18:35:58.373Z,80.32
2024-01-16T18:39:01.370Z,91.22
2024-01-16T18:42:03.970Z,91.05
2024-01-16T18:45:09.486Z,75.75
2024-01-16T18:48:12.343Z,89.85
2024-01-16T18:51:15.344Z,91.65
2024-01-16T18:54:18.064Z,49.92
2024-01-16T18:57:20.301Z,76.90
2024-01-16T19:00:23.444Z,85.00
2024-01-16T19:03:27.028Z,48.38
2024-01-16T19:06:30.047Z,51.35
2024-01-16T19:09:33.385Z,42.42
2024-01-16T19:12:35.627Z,49.78
2024-01-16T19:15:37.857Z,60.42
2024-01-16T19:18:45.391Z,34.40
2024-01-16T19:21:48.041Z,68.15
2024-01-16T19:24:51.235Z,89.32
2024-01-16T19:27:53.911Z,60.33
2024-01-16T19:30:59.296Z,66.40
2024-01-16T19:34:01.879Z,46.20
2024-01-16T19:37:05.024Z,68.63
2024-01-16T19:40:08.971Z,50.22
2024-01-16T19:43:11.455Z,92.15
2024-01-16T19:46:14.664Z,42.83
2024-01-16T19:49:17.891Z,76.78
2024-01-16T19:52:20.456Z,65.00
2024-01-16T19:55:24.978Z,69.07
2024-01-16T19:58:27.606Z,60.95
2024-01-16T20:01:32.076Z,69.65
2024-01-16T20:04:35.223Z,78.63
2024-01-16T20:07:38.818Z,73.85
2024-01-16T20:10:41.386Z,68.28
2024-01-16T20:13:44.153Z,51.17
2024-01-16T20:16:46.688Z,70.05
2024-01-16T20:19:49.416Z,64.05
2024-01-16T20:22:53.835Z,60.08
2024-01-16T20:25:56.380Z,58.10
2024-01-16T20:28:58.541Z,59.67
2024-01-16T20:32:03.785Z,74.45
2024-01-16T20:35:08.702Z,58.35
2024-01-16T20:38:10.997Z,76.38
2024-01-16T20:41:14.277Z,63.35
2024-01-16T20:44:21.692Z,58.03
2024-01-16T20:47:24.125Z,47.65
2024-01-16T20:50:26.446Z,59.97
2024-01-16T20:53:29.831Z,46.20
2024-01-16T20:56:32.959Z,60.97
2024-01-16T20:59:35.155Z,48.90
2024-01-16T21:02:37.584Z,55.55
2024-01-16T21:05:41.313Z,43.20
2024-01-16T21:08:44.015Z,51.63
2024-01-16T21:11:46.201Z,58.80
2024-01-16T21:14:48.600Z,52.88
2024-01-16T21:17:51.256Z,55.35
2024-01-16T21:20:53.752Z,54.78
2024-01-16T21:23:56.191Z,56.70
2024-01-16T21:26:58.728Z,49.30
2024-01-16T21:30:02.075Z,57.00
2024-01-16T21:33:05.056Z,58.85
2024-01-16T21:36:09.562Z,58.67
2024-01-16T21:39:14.789Z,59.65
2024-01-16T21:42:17.548Z,69.05
2024-01-16T21:45:20.583Z,88.50
2024-01-16T21:48:23.052Z,119.80
2024-01-16T21:51:25.552Z,85.38
2024-01-16T21:54:29.960Z,59.85
2024-01-16T21:57:34.257Z,50.50
2024-01-16T22:00:38.387Z,45.97
2024-01-16T22:03:42.276Z,77.18
2024-01-16T22:06:45.536Z,76.47
2024-01-16T22:09:47.969Z,59.67
2024-01-16T22:12:50.479Z,53.67
2024-01-16T22:15:52.808Z,57.05
2024-01-16T22:18:57.112Z,60.67
2024-01-16T22:21:59.610Z,67.75
2024-01-16T22:25:01.900Z,57.10
2024-01-16T22:28:04.716Z,89.85
2024-01-16T22:31:08.984Z,57.40
2024-01-16T22:34:11.847Z,63.17
2024-01-16T22:37:15.480Z,61.55
2024-01-16T22:40:17.591Z,77.13
2024-01-16T22:43:19.939Z,64.88
2024-01-16T22:46:21.958Z,74.90
2024-01-16T22:49:24.018Z,65.75
2024-01-16T22:52:27.875Z,95.00
2024-01-16T22:55:30.202Z,68.78
2024-01-16T22:58:33.825Z,69.25
2024-01-16T23:01:36.061Z,74.65
2024-01-16T23:04:38.580Z,65.32
2024-01-16T23:07:40.642Z,79.68
2024-01-16T23:10:42.974Z,66.57
2024-01-16T23:13:45.507Z,89.40
2024-01-16T23:16:47.768Z,63.90
2024-01-16T23:19:50.310Z,62.33
2024-01-16T23:22:52.642Z,54.50
2024-01-16T23:25:54.808Z,76.30
2024-01-16T23:28:57.032Z,74.85
2024-01-16T23:31:59.304Z,74.65
2024-01-16T23:35:01.677Z,60.80
2024-01-16T23:38:07.120Z,70.72
2024-01-16T23:41:13.023Z,78.82
2024-01-16T23:44:15.505Z,56.90
2024-01-16T23:47:18.269Z,50.40
2024-01-16T23:50:20.570Z,80.47
2024-01-16T23:53:23.048Z,124.30
2024-01-16T23:56:25.499Z,68.20
2024-01-16T23:59:27.704Z,79.18
